createdAt,value
2018-12-25T00:00:31.128Z,13.23
2018-12-25T00:03:02.660Z,9.70
2018-12-25T00:05:34.070Z,11.07
2018-12-25T00:08:05.434Z,12.57
2018-12-25T00:10:36.703Z,12.17
2018-12-25T00:13:08.088Z,11.67
2018-12-25T00:15:42.609Z,11.63
2018-12-25T00:18:14.046Z,12.50
2018-12-25T00:20:45.340Z,9.40
2018-12-25T00:23:16.721Z,10.03
2018-12-25T00:25:48.029Z,9.17
2018-12-25T00:28:19.537Z,8.30
2018-12-25T00:30:50.991Z,9.63
2018-12-25T00:33:22.506Z,9.03
2018-12-25T00:35:53.903Z,9.67
2018-12-25T00:38:25.307Z,7.73
2018-12-25T00:40:58.002Z,7.23
2018-12-25T00:43:35.209Z,8.40
2018-12-25T00:46:07.673Z,8.87
2018-12-25T00:48:39.218Z,6.60
2018-12-25T00:51:10.764Z,5.50
2018-12-25T00:53:42.267Z,6.03
2018-12-25T00:56:13.648Z,7.83
2018-12-25T00:58:45.158Z,6.27
2018-12-25T01:01:17.429Z,5.47
2018-12-25T01:03:48.823Z,5.97
2018-12-25T01:06:20.212Z,5.27
2018-12-25T01:08:51.585Z,5.13
2018-12-25T01:11:26.061Z,5.93
2018-12-25T01:13:57.466Z,3.87
2018-12-25T01:16:28.907Z,3.37
2018-12-25T01:19:00.396Z,5.33
2018-12-25T01:21:31.823Z,3.80
2018-12-25T01:24:03.173Z,2.73
2018-12-25T01:26:37.258Z,4.53
2018-12-25T01:29:08.768Z,4.73
2018-12-25T01:31:40.137Z,4.17
2018-12-25T01:34:11.482Z,4.73
2018-12-25T01:36:42.875Z,5.23
2018-12-25T01:39:14.365Z,3.77
2018-12-25T01:41:45.781Z,3.30
2018-12-25T01:44:17.263Z,4.87
2018-12-25T01:46:49.469Z,5.10
2018-12-25T01:49:21.097Z,2.93
2018-12-25T01:51:52.414Z,3.27
2018-12-25T01:54:26.493Z,3.70
2018-12-25T01:56:57.954Z,4.80
2018-12-25T01:59:29.462Z,4.17
2018-12-25T02:02:00.834Z,2.90
2018-12-25T02:04:32.308Z,3.77
2018-12-25T02:07:03.717Z,2.93
2018-12-25T02:09:35.182Z,3.93
2018-12-25T02:12:06.625Z,3.73
2018-12-25T02:14:38.038Z,5.23
2018-12-25T02:17:09.412Z,3.87
2018-12-25T02:19:40.856Z,6.17
2018-12-25T02:22:12.224Z,5.50
2018-12-25T02:24:44.922Z,3.60
2018-12-25T02:27:16.344Z,4.87
2018-12-25T02:29:50.534Z,3.83
2018-12-25T02:32:21.984Z,3.60
2018-12-25T02:34:53.373Z,4.33
2018-12-25T02:37:24.903Z,2.77
2018-12-25T02:39:56.358Z,3.83
2018-12-25T02:42:27.722Z,5.47
2018-12-25T02:44:59.027Z,4.70
2018-12-25T02:47:36.416Z,3.87
2018-12-25T02:50:08.052Z,3.33
2018-12-25T02:52:39.443Z,3.70
2018-12-25T02:55:10.901Z,3.40
2018-12-25T02:57:42.397Z,2.03
2018-12-25T03:00:13.737Z,3.30
2018-12-25T03:02:45.459Z,3.10
2018-12-25T03:05:16.795Z,3.40
2018-12-25T03:07:48.066Z,3.13
2018-12-25T03:10:19.387Z,3.63
2018-12-25T03:12:50.900Z,1.63
2018-12-25T03:15:22.367Z,1.70
2018-12-25T03:17:53.786Z,3.67
2018-12-25T03:20:25.173Z,1.87
2018-12-25T03:22:56.536Z,2.00
2018-12-25T03:25:28.016Z,2.10
2018-12-25T03:27:59.527Z,2.73
2018-12-25T03:30:33.078Z,2.97
2018-12-25T03:33:04.500Z,3.77
2018-12-25T03:35:35.871Z,1.70
2018-12-25T03:38:07.348Z,3.13
2018-12-25T03:40:38.993Z,2.00
2018-12-25T03:43:12.990Z,2.13
2018-12-25T03:45:44.593Z,1.57
2018-12-25T03:48:16.286Z,2.40
2018-12-25T03:53:55.562Z,2.67
2018-12-25T03:56:27.061Z,2.23
2018-12-25T03:58:58.381Z,2.40
2018-12-25T04:01:29.786Z,2.57
2018-12-25T04:04:01.151Z,2.30
2018-12-25T04:06:32.524Z,2.20
2018-12-25T04:09:04.452Z,2.83
2018-12-25T04:11:35.902Z,1.70
2018-12-25T04:14:07.362Z,1.83
2018-12-25T04:16:38.724Z,2.93
2018-12-25T04:19:10.113Z,3.90
2018-12-25T04:21:41.474Z,3.93
2018-12-25T04:24:12.715Z,2.47
2018-12-25T04:26:44.071Z,2.63
2018-12-25T04:29:15.439Z,2.17
2018-12-25T04:31:46.721Z,3.83
2018-12-25T04:34:18.156Z,3.07
2018-12-25T04:36:49.581Z,4.20
2018-12-25T04:39:21.066Z,3.27
2018-12-25T04:41:52.604Z,3.70
2018-12-25T04:44:24.175Z,3.43
2018-12-25T04:46:55.712Z,3.87
2018-12-25T04:49:27.279Z,3.60
2018-12-25T04:51:58.675Z,2.63
2018-12-25T04:54:30.167Z,2.93
2018-12-25T04:57:01.632Z,3.10
2018-12-25T04:59:33.264Z,2.97
2018-12-25T05:02:04.627Z,4.50
2018-12-25T05:04:36.212Z,3.57
2018-12-25T05:07:07.745Z,3.20
2018-12-25T05:09:39.298Z,3.17
2018-12-25T05:12:10.700Z,2.70
2018-12-25T05:14:42.301Z,3.33
2018-12-25T05:17:13.771Z,4.47
2018-12-25T05:19:45.272Z,3.53
2018-12-25T05:22:16.714Z,2.83
2018-12-25T05:24:48.291Z,3.20
2018-12-25T05:27:19.770Z,2.53
2018-12-25T05:29:51.280Z,3.07
2018-12-25T05:32:22.747Z,2.63
2018-12-25T05:34:54.360Z,4.10
2018-12-25T05:37:25.826Z,2.63
2018-12-25T05:39:57.403Z,3.47
2018-12-25T05:42:29.016Z,2.50
2018-12-25T05:45:00.601Z,2.40
2018-12-25T05:47:32.003Z,2.50
2018-12-25T05:50:03.564Z,3.57
2018-12-25T05:52:35.088Z,2.10
2018-12-25T05:55:06.747Z,3.23
2018-12-25T05:57:38.385Z,3.77
2018-12-25T06:00:10.109Z,2.37
2018-12-25T06:02:41.563Z,2.33
2018-12-25T06:05:13.173Z,2.93
2018-12-25T06:07:44.719Z,5.33
2018-12-25T06:10:16.343Z,3.20
2018-12-25T06:12:47.882Z,2.40
2018-12-25T06:15:19.358Z,2.23
2018-12-25T06:17:50.869Z,2.10
2018-12-25T06:20:22.255Z,3.20
2018-12-25T06:22:53.735Z,2.00
2018-12-25T06:25:25.242Z,2.40
2018-12-25T06:27:56.643Z,3.70
2018-12-25T06:30:28.095Z,2.47
2018-12-25T06:32:59.446Z,2.57
2018-12-25T06:35:31.093Z,3.70
2018-12-25T06:38:02.583Z,3.60
2018-12-25T06:40:34.102Z,3.20
2018-12-25T06:43:05.528Z,2.40
2018-12-25T06:45:36.876Z,3.10
2018-12-25T06:48:08.324Z,2.93
2018-12-25T06:50:39.758Z,2.80
2018-12-25T06:53:11.146Z,2.97
2018-12-25T06:55:42.846Z,5.43
2018-12-25T06:58:14.537Z,2.63
2018-12-25T07:00:46.279Z,2.47
2018-12-25T07:03:17.925Z,2.60
2018-12-25T07:05:49.377Z,3.13
2018-12-25T07:08:21.781Z,2.87
2018-12-25T07:10:53.447Z,4.27
2018-12-25T07:13:25.481Z,3.60
2018-12-25T07:15:57.286Z,5.80
2018-12-25T07:18:28.666Z,4.13
2018-12-25T07:21:00.707Z,3.97
2018-12-25T07:23:32.062Z,8.70
2018-12-25T07:26:03.573Z,4.77
2018-12-25T07:28:35.027Z,6.27
2018-12-25T07:31:06.677Z,26.40
2018-12-25T07:33:38.508Z,26.53
2018-12-25T07:36:10.049Z,14.77
2018-12-25T07:38:41.564Z,9.37
2018-12-25T07:41:14.293Z,4.93
2018-12-25T07:43:45.835Z,4.07
2018-12-25T07:46:17.350Z,3.97
2018-12-25T07:48:48.710Z,4.50
2018-12-25T07:51:20.834Z,6.67
2018-12-25T07:53:52.750Z,4.13
2018-12-25T07:56:24.369Z,4.10
2018-12-25T07:58:55.889Z,4.00
2018-12-25T08:01:27.379Z,6.33
2018-12-25T08:03:58.940Z,4.40
2018-12-25T08:06:30.431Z,6.20
2018-12-25T08:09:01.916Z,5.03
2018-12-25T08:11:34.255Z,5.97
2018-12-25T08:14:05.781Z,5.63
2018-12-25T08:16:37.481Z,5.77
2018-12-25T08:19:08.958Z,6.53
2018-12-25T08:21:40.559Z,6.50
2018-12-25T08:24:13.551Z,4.40
2018-12-25T08:26:46.494Z,6.53
2018-12-25T08:29:17.905Z,5.83
2018-12-25T08:31:49.341Z,5.93
2018-12-25T08:34:20.850Z,6.30
2018-12-25T08:36:52.432Z,6.67
2018-12-25T08:39:24.000Z,5.63
2018-12-25T08:41:55.551Z,5.73
2018-12-25T08:44:27.207Z,6.50
2018-12-25T08:47:02.652Z,6.43
2018-12-25T08:49:32.703Z,6.43
2018-12-25T08:52:04.309Z,8.43
2018-12-25T08:54:36.078Z,5.90
2018-12-25T08:57:07.717Z,6.63
2018-12-25T08:59:46.000Z,5.40
2018-12-25T09:02:17.588Z,8.03
2018-12-25T09:04:49.096Z,7.13
2018-12-25T09:07:20.647Z,7.23
2018-12-25T09:09:52.186Z,6.03
2018-12-25T09:12:57.417Z,6.70
2018-12-25T09:15:28.736Z,5.97
2018-12-25T09:18:06.747Z,7.77
2018-12-25T09:20:38.302Z,59.07
2018-12-25T09:23:10.907Z,372.97
2018-12-25T09:25:42.449Z,354.10
2018-12-25T09:28:14.211Z,318.83
2018-12-25T09:30:45.848Z,633.77
2018-12-25T09:33:18.582Z,369.87
2018-12-25T09:35:50.326Z,472.30
2018-12-25T09:38:22.370Z,537.33
2018-12-25T09:40:56.299Z,471.03
2018-12-25T09:43:28.875Z,492.20
2018-12-25T09:46:00.376Z,500.67
2018-12-25T09:48:31.837Z,437.50
2018-12-25T09:51:03.378Z,145.30
2018-12-25T09:53:34.887Z,198.77
2018-12-25T09:56:09.202Z,359.77
2018-12-25T09:58:40.729Z,222.83
2018-12-25T10:01:12.127Z,60.87
2018-12-25T10:03:43.580Z,21.50
2018-12-25T10:06:14.966Z,18.13
2018-12-25T10:08:46.548Z,28.53
2018-12-25T10:11:18.067Z,9.73
2018-12-25T10:13:49.639Z,10.57
2018-12-25T10:16:21.017Z,7.13
2018-12-25T10:18:52.634Z,7.17
2018-12-25T10:21:24.208Z,7.77
2018-12-25T10:23:55.710Z,7.17
2018-12-25T10:26:27.389Z,8.57
2018-12-25T10:28:58.955Z,6.17
2018-12-25T10:31:30.462Z,8.37
2018-12-25T10:34:01.929Z,12.63
2018-12-25T10:36:33.467Z,14.13
2018-12-25T10:39:06.369Z,6.83
2018-12-25T10:41:37.979Z,8.27
2018-12-25T10:44:09.380Z,6.53
2018-12-25T10:46:40.747Z,7.20
2018-12-25T10:49:12.202Z,7.07
2018-12-25T10:51:43.732Z,8.20
2018-12-25T10:54:15.163Z,6.87
2018-12-25T10:56:46.733Z,7.50
2018-12-25T10:59:18.389Z,10.13
2018-12-25T11:01:49.941Z,8.03
2018-12-25T11:04:21.572Z,10.13
2018-12-25T11:06:53.159Z,9.50
2018-12-25T11:09:24.512Z,7.77
2018-12-25T11:11:56.016Z,10.60
2018-12-25T11:14:27.366Z,12.23
2018-12-25T11:16:58.864Z,9.90
2018-12-25T11:19:30.331Z,13.33
2018-12-25T11:22:01.704Z,10.23
2018-12-25T11:24:33.154Z,7.57
2018-12-25T11:27:04.665Z,7.87
2018-12-25T11:29:36.115Z,11.77
2018-12-25T11:32:08.807Z,22.47
2018-12-25T11:34:40.202Z,78.13
2018-12-25T11:37:11.694Z,33.20
2018-12-25T11:39:43.064Z,16.70
2018-12-25T11:42:14.562Z,19.23
2018-12-25T11:44:45.914Z,23.40
2018-12-25T11:47:17.516Z,21.17
2018-12-25T11:49:48.952Z,26.37
2018-12-25T11:52:28.208Z,27.50
2018-12-25T11:54:53.712Z,21.63
2018-12-25T11:57:25.365Z,17.20
2018-12-25T11:59:58.780Z,18.07
2018-12-25T12:02:30.225Z,9.13
2018-12-25T12:05:01.626Z,12.47
2018-12-25T12:07:33.203Z,10.07
2018-12-25T12:10:04.732Z,9.53
2018-12-25T12:12:36.257Z,8.13
2018-12-25T12:15:08.224Z,7.60
2018-12-25T12:17:39.828Z,6.30
2018-12-25T12:20:11.328Z,5.60
2018-12-25T12:22:42.919Z,8.50
2018-12-25T12:25:14.348Z,9.53
2018-12-25T12:27:46.870Z,6.53
2018-12-25T12:30:18.379Z,10.20
2018-12-25T12:32:52.172Z,9.63
2018-12-25T12:35:23.669Z,9.50
2018-12-25T12:37:55.198Z,10.80
2018-12-25T12:40:26.656Z,12.00
2018-12-25T12:42:58.103Z,9.93
2018-12-25T12:45:30.956Z,9.10
2018-12-25T12:48:02.376Z,8.80
2018-12-25T12:50:33.876Z,8.70
2018-12-25T12:53:05.444Z,9.33
2018-12-25T12:55:36.868Z,10.07
2018-12-25T12:58:08.565Z,15.40
2018-12-25T13:00:40.098Z,15.07
2018-12-25T13:03:14.618Z,13.57
2018-12-25T13:05:47.828Z,12.23
2018-12-25T13:08:19.320Z,13.40
2018-12-25T13:10:52.818Z,11.00
2018-12-25T13:13:24.319Z,10.17
2018-12-25T13:15:55.884Z,5.13
2018-12-25T13:18:29.178Z,7.27
2018-12-25T13:21:18.925Z,8.87
2018-12-25T13:23:53.555Z,5.50
2018-12-25T13:26:25.051Z,6.80
2018-12-25T13:28:59.268Z,6.23
2018-12-25T13:31:33.656Z,6.57
2018-12-25T13:34:05.289Z,9.03
2018-12-25T13:36:36.797Z,6.73
2018-12-25T13:39:09.249Z,8.60
2018-12-25T13:41:40.766Z,7.40
2018-12-25T13:44:12.256Z,5.90
2018-12-25T13:46:51.319Z,7.03
2018-12-25T13:49:16.850Z,7.30
2018-12-25T13:51:48.445Z,8.27
2018-12-25T13:54:19.977Z,9.03
2018-12-25T13:56:51.539Z,7.57
2018-12-25T13:59:23.068Z,9.37
2018-12-25T14:01:54.566Z,9.03
2018-12-25T14:04:26.100Z,9.90
2018-12-25T14:06:57.554Z,10.93
2018-12-25T14:09:29.080Z,9.83
2018-12-25T14:12:00.411Z,9.10
2018-12-25T14:14:32.044Z,12.73
2018-12-25T14:17:03.492Z,11.17
2018-12-25T14:19:34.992Z,8.97
2018-12-25T14:22:06.492Z,12.20
2018-12-25T14:24:38.033Z,11.47
2018-12-25T14:27:09.632Z,13.53
2018-12-25T14:29:41.066Z,13.90
2018-12-25T14:32:12.603Z,8.10
2018-12-25T14:34:44.124Z,12.33
2018-12-25T14:37:16.039Z,15.17
2018-12-25T14:39:47.639Z,10.17
2018-12-25T14:42:18.999Z,10.70
2018-12-25T14:44:50.537Z,11.47
2018-12-25T14:47:21.849Z,10.80
2018-12-25T14:49:53.338Z,10.03
2018-12-25T14:52:24.749Z,10.83
2018-12-25T14:54:56.428Z,13.23
2018-12-25T14:57:28.042Z,21.03
2018-12-25T14:59:59.515Z,17.93
2018-12-25T15:02:31.003Z,19.03
2018-12-25T15:05:02.423Z,18.23
2018-12-25T15:07:34.043Z,13.30
2018-12-25T15:10:05.561Z,26.13
2018-12-25T15:12:36.956Z,19.70
2018-12-25T15:15:08.470Z,17.77
2018-12-25T15:17:39.976Z,21.93
2018-12-25T15:20:11.458Z,12.37
2018-12-25T15:22:42.912Z,13.43
2018-12-25T15:25:14.454Z,12.53
2018-12-25T15:27:45.919Z,15.50
2018-12-25T15:30:17.438Z,11.93
2018-12-25T15:32:48.984Z,12.83
2018-12-25T15:35:20.701Z,12.47
2018-12-25T15:37:52.255Z,17.63
2018-12-25T15:40:23.778Z,13.17
2018-12-25T15:42:55.293Z,18.90
2018-12-25T15:45:32.302Z,14.60
2018-12-25T15:48:03.895Z,17.43
2018-12-25T15:50:35.309Z,15.23
2018-12-25T15:53:06.921Z,12.80
2018-12-25T15:55:38.448Z,10.03
2018-12-25T15:58:09.945Z,9.87
2018-12-25T16:00:41.540Z,10.17
2018-12-25T16:03:12.889Z,10.80
2018-12-25T16:05:44.356Z,8.83
2018-12-25T16:08:15.835Z,9.57
2018-12-25T16:10:49.835Z,10.03
2018-12-25T16:13:21.322Z,8.47
2018-12-25T16:15:53.044Z,9.50
2018-12-25T16:18:24.598Z,9.70
2018-12-25T16:20:56.171Z,8.70
2018-12-25T16:23:27.718Z,9.77
2018-12-25T16:25:59.853Z,9.80
2018-12-25T16:28:33.298Z,8.40
2018-12-25T16:31:04.861Z,11.60
2018-12-25T16:33:36.956Z,12.00
2018-12-25T16:36:10.328Z,10.10
2018-12-25T16:38:42.438Z,11.47
2018-12-25T16:41:14.831Z,10.80
2018-12-25T16:43:50.255Z,11.83
2018-12-25T16:46:21.903Z,11.53
2018-12-25T16:48:53.541Z,10.07
2018-12-25T16:51:25.237Z,10.43
2018-12-25T16:53:56.918Z,10.03
2018-12-25T16:56:30.819Z,7.97
2018-12-25T16:59:02.345Z,10.93
2018-12-25T17:01:33.802Z,8.70
2018-12-25T17:04:05.222Z,9.93
2018-12-25T17:06:36.772Z,8.37
2018-12-25T17:09:09.071Z,9.90
2018-12-25T17:11:41.631Z,13.23
2018-12-25T17:14:13.089Z,9.97
2018-12-25T17:16:44.583Z,8.97
2018-12-25T17:19:19.584Z,8.93
2018-12-25T17:21:51.053Z,9.40
2018-12-25T17:24:22.588Z,8.90
2018-12-25T17:26:53.969Z,10.27
2018-12-25T17:29:25.574Z,25.77
2018-12-25T17:31:57.130Z,17.40
2018-12-25T17:34:28.785Z,11.03
2018-12-25T17:37:01.493Z,7.33
2018-12-25T17:39:33.191Z,10.23
2018-12-25T17:42:05.021Z,8.83
2018-12-25T17:44:37.194Z,11.00
2018-12-25T17:47:08.944Z,7.30
2018-12-25T17:49:40.577Z,8.60
2018-12-25T17:52:12.122Z,9.67
2018-12-25T17:54:43.647Z,9.63
2018-12-25T17:57:15.221Z,9.23
2018-12-25T17:59:46.691Z,10.37
2018-12-25T18:02:18.310Z,11.67
2018-12-25T18:04:49.833Z,33.20
2018-12-25T18:07:21.291Z,13.93
2018-12-25T18:09:52.936Z,18.80
2018-12-25T18:12:24.624Z,9.87
2018-12-25T18:14:56.239Z,11.53
2018-12-25T18:17:28.555Z,13.67
2018-12-25T18:20:00.165Z,11.07
2018-12-25T18:22:32.361Z,9.97
2018-12-25T18:25:03.927Z,9.97
2018-12-25T18:27:35.728Z,10.90
2018-12-25T18:30:08.002Z,12.93
2018-12-25T18:32:39.571Z,12.37
2018-12-25T18:35:11.254Z,11.83
2018-12-25T18:37:43.440Z,11.73
2018-12-25T18:40:15.082Z,13.00
2018-12-25T18:42:46.864Z,12.50
2018-12-25T18:45:18.648Z,11.77
2018-12-25T18:47:50.791Z,11.33
2018-12-25T18:50:22.399Z,12.03
2018-12-25T18:52:54.246Z,13.63
2018-12-25T18:55:26.071Z,12.43
2018-12-25T18:57:57.616Z,9.27
2018-12-25T19:00:29.435Z,11.60
2018-12-25T19:03:03.068Z,16.40
2018-12-25T19:05:34.696Z,12.83
2018-12-25T19:08:06.460Z,10.53
2018-12-25T19:10:38.281Z,10.73
2018-12-25T19:13:09.992Z,13.37
2018-12-25T19:15:42.228Z,11.40
2018-12-25T19:18:14.786Z,15.63
2018-12-25T19:20:46.403Z,9.40
2018-12-25T19:23:18.122Z,10.90
2018-12-25T19:25:49.879Z,15.33
2018-12-25T19:28:21.819Z,13.43
2018-12-25T19:30:53.505Z,15.73
2018-12-25T19:33:24.995Z,16.10
2018-12-25T19:35:56.587Z,14.03
2018-12-25T19:38:28.229Z,11.77
2018-12-25T19:41:00.758Z,12.33
2018-12-25T19:43:32.377Z,13.63
2018-12-25T19:46:04.972Z,11.00
2018-12-25T19:48:36.680Z,10.20
2018-12-25T19:51:08.254Z,13.47
2018-12-25T19:53:39.706Z,9.10
2018-12-25T19:56:11.348Z,9.47
2018-12-25T19:58:42.813Z,10.90
2018-12-25T20:01:14.346Z,13.07
2018-12-25T20:04:29.373Z,11.23
2018-12-25T20:07:48.873Z,12.30
2018-12-25T20:10:46.207Z,12.33
2018-12-25T20:13:56.928Z,12.03
2018-12-25T20:17:03.198Z,12.23
2018-12-25T20:20:13.810Z,11.17
2018-12-25T20:23:21.833Z,11.07
2018-12-25T20:27:04.245Z,11.37
2018-12-25T20:30:11.668Z,9.23
2018-12-25T20:33:19.349Z,13.60
2018-12-25T20:36:15.895Z,11.93
2018-12-25T20:39:31.283Z,11.90
2018-12-25T20:42:39.192Z,13.30
2018-12-25T20:45:49.961Z,12.00
2018-12-25T20:49:06.144Z,10.90
2018-12-25T20:52:19.552Z,11.30
2018-12-25T20:55:35.396Z,11.97
2018-12-25T20:58:40.547Z,15.70
2018-12-25T21:01:53.969Z,13.10
2018-12-25T21:05:01.746Z,10.27
2018-12-25T21:07:54.435Z,9.30
2018-12-25T21:11:20.482Z,10.07
2018-12-25T21:14:53.599Z,10.07
2018-12-25T21:18:01.666Z,11.77
2018-12-25T21:21:08.765Z,9.17
2018-12-25T21:24:15.383Z,12.33
2018-12-25T21:27:21.722Z,14.10
2018-12-25T21:29:53.422Z,14.77
2018-12-25T21:32:25.103Z,11.70
2018-12-25T21:35:06.497Z,10.57
2018-12-25T21:37:38.674Z,13.77
2018-12-25T21:40:10.280Z,12.43
2018-12-25T21:42:42.323Z,8.80
2018-12-25T21:45:14.699Z,10.87
2018-12-25T21:47:46.290Z,11.07
2018-12-25T21:50:18.359Z,10.83
2018-12-25T21:52:49.765Z,9.80
2018-12-25T21:55:21.385Z,10.23
2018-12-25T21:57:53.532Z,8.67
2018-12-25T22:00:27.698Z,9.67
2018-12-25T22:02:59.243Z,11.27
2018-12-25T22:05:31.791Z,8.70
2018-12-25T22:08:03.194Z,9.60
2018-12-25T22:10:34.598Z,12.97
2018-12-25T22:13:06.160Z,11.13
2018-12-25T22:15:40.490Z,8.40
2018-12-25T22:18:14.695Z,9.97
2018-12-25T22:20:46.211Z,9.20
2018-12-25T22:23:17.780Z,8.57
2018-12-25T22:25:49.281Z,8.40
2018-12-25T22:28:20.836Z,9.67
2018-12-25T22:30:52.395Z,11.93
2018-12-25T22:33:23.841Z,11.63
2018-12-25T22:35:55.309Z,10.63
2018-12-25T22:38:26.837Z,15.13
2018-12-25T22:40:58.258Z,9.70
2018-12-25T22:43:29.725Z,11.77
2018-12-25T22:46:01.073Z,19.87
2018-12-25T22:48:32.534Z,14.87
2018-12-25T22:51:03.860Z,15.40
2018-12-25T22:53:35.377Z,13.77
2018-12-25T22:56:06.818Z,8.60
2018-12-25T22:58:38.282Z,9.73
2018-12-25T23:01:09.691Z,10.93
2018-12-25T23:03:41.173Z,8.97
2018-12-25T23:06:12.643Z,10.20
2018-12-25T23:08:44.099Z,12.37
2018-12-25T23:11:15.666Z,11.67
2018-12-25T23:13:47.304Z,12.40
2018-12-25T23:16:18.911Z,11.03
2018-12-25T23:18:50.418Z,9.60
2018-12-25T23:21:21.832Z,12.03
2018-12-25T23:23:53.299Z,10.90
2018-12-25T23:26:24.844Z,12.17
2018-12-25T23:28:56.324Z,12.50
2018-12-25T23:31:27.813Z,12.00
2018-12-25T23:33:59.433Z,12.87
2018-12-25T23:36:30.884Z,10.27
2018-12-25T23:39:02.366Z,11.83
2018-12-25T23:41:33.687Z,12.17
2018-12-25T23:44:05.284Z,13.27
2018-12-25T23:46:36.624Z,10.20
2018-12-25T23:49:08.062Z,11.83
2018-12-25T23:51:42.000Z,10.17
2018-12-25T23:54:13.528Z,11.33
2018-12-25T23:56:44.994Z,9.57
2018-12-25T23:59:16.493Z,12.07
